sensor_id;sensor_type;location;lat;lon;timestamp;P1;durP1;ratioP1;P2;durP2;ratioP2
39958;SDS011;25639;53.634;9.880;2022-07-17T00:01:52;11.55;;;2.35;;
39958;SDS011;25639;53.634;9.880;2022-07-17T00:04:18;9.48;;;2.47;;
39958;SDS011;25639;53.634;9.880;2022-07-17T00:06:43;11.43;;;2.60;;
39958;SDS011;25639;53.634;9.880;2022-07-17T00:09:08;6.50;;;2.40;;
39958;SDS011;25639;53.634;9.880;2022-07-17T00:11:34;10.30;;;2.45;;
39958;SDS011;25639;53.634;9.880;2022-07-17T00:13:59;12.27;;;2.63;;
39958;SDS011;25639;53.634;9.880;2022-07-17T00:16:24;7.30;;;1.90;;
39958;SDS011;25639;53.634;9.880;2022-07-17T00:18:50;10.00;;;2.28;;
39958;SDS011;25639;53.634;9.880;2022-07-17T00:21:15;10.93;;;2.22;;
39958;SDS011;25639;53.634;9.880;2022-07-17T00:23:41;13.57;;;2.63;;
39958;SDS011;25639;53.634;9.880;2022-07-17T00:26:06;10.07;;;1.92;;
39958;SDS011;25639;53.634;9.880;2022-07-17T00:28:31;13.77;;;3.33;;
39958;SDS011;25639;53.634;9.880;2022-07-17T00:30:57;8.82;;;1.90;;
39958;SDS011;25639;53.634;9.880;2022-07-17T00:33:22;12.70;;;2.42;;
39958;SDS011;25639;53.634;9.880;2022-07-17T00:35:47;9.45;;;2.50;;
39958;SDS011;25639;53.634;9.880;2022-07-17T00:38:13;8.23;;;2.28;;
39958;SDS011;25639;53.634;9.880;2022-07-17T00:40:39;8.75;;;2.40;;
39958;SDS011;25639;53.634;9.880;2022-07-17T00:43:05;6.45;;;2.25;;
39958;SDS011;25639;53.634;9.880;2022-07-17T00:45:30;11.15;;;3.45;;
39958;SDS011;25639;53.634;9.880;2022-07-17T00:50:29;8.02;;;2.33;;
39958;SDS011;25639;53.634;9.880;2022-07-17T00:53:03;11.02;;;2.67;;
39958;SDS011;25639;53.634;9.880;2022-07-17T00:55:30;9.45;;;2.65;;
39958;SDS011;25639;53.634;9.880;2022-07-17T00:57:55;11.30;;;2.50;;
39958;SDS011;25639;53.634;9.880;2022-07-17T01:00:22;8.38;;;2.20;;
39958;SDS011;25639;53.634;9.880;2022-07-17T01:02:49;10.07;;;2.38;;
39958;SDS011;25639;53.634;9.880;2022-07-17T01:05:17;8.65;;;2.35;;
39958;SDS011;25639;53.634;9.880;2022-07-17T01:07:44;8.98;;;2.58;;
39958;SDS011;25639;53.634;9.880;2022-07-17T01:10:11;11.07;;;2.03;;
39958;SDS011;25639;53.634;9.880;2022-07-17T01:12:36;8.98;;;2.72;;
39958;SDS011;25639;53.634;9.880;2022-07-17T01:15:03;7.95;;;2.28;;
39958;SDS011;25639;53.634;9.880;2022-07-17T01:17:30;9.32;;;2.67;;
39958;SDS011;25639;53.634;9.880;2022-07-17T01:19:56;10.98;;;2.17;;
39958;SDS011;25639;53.634;9.880;2022-07-17T01:22:21;12.40;;;2.80;;
39958;SDS011;25639;53.634;9.880;2022-07-17T01:24:46;13.18;;;2.40;;
39958;SDS011;25639;53.634;9.880;2022-07-17T01:27:12;14.60;;;2.67;;
39958;SDS011;25639;53.634;9.880;2022-07-17T01:29:37;10.57;;;2.33;;
39958;SDS011;25639;53.634;9.880;2022-07-17T01:32:04;6.55;;;2.05;;
39958;SDS011;25639;53.634;9.880;2022-07-17T01:34:31;9.93;;;2.50;;
39958;SDS011;25639;53.634;9.880;2022-07-17T01:36:57;8.18;;;2.10;;
39958;SDS011;25639;53.634;9.880;2022-07-17T01:39:23;11.50;;;2.10;;
39958;SDS011;25639;53.634;9.880;2022-07-17T01:42:07;9.15;;;2.42;;
39958;SDS011;25639;53.634;9.880;2022-07-17T01:44:33;13.27;;;2.75;;
39958;SDS011;25639;53.634;9.880;2022-07-17T01:46:58;8.02;;;2.30;;
39958;SDS011;25639;53.634;9.880;2022-07-17T01:49:23;8.02;;;2.40;;
39958;SDS011;25639;53.634;9.880;2022-07-17T01:51:49;16.13;;;2.95;;
39958;SDS011;25639;53.634;9.880;2022-07-17T01:54:14;7.78;;;2.40;;
39958;SDS011;25639;53.634;9.880;2022-07-17T01:56:40;7.13;;;2.20;;
39958;SDS011;25639;53.634;9.880;2022-07-17T01:59:05;6.43;;;2.20;;
39958;SDS011;25639;53.634;9.880;2022-07-17T02:01:30;9.68;;;2.65;;
39958;SDS011;25639;53.634;9.880;2022-07-17T02:03:56;15.35;;;2.83;;
39958;SDS011;25639;53.634;9.880;2022-07-17T02:06:21;13.43;;;2.72;;
39958;SDS011;25639;53.634;9.880;2022-07-17T02:08:47;15.25;;;2.97;;
39958;SDS011;25639;53.634;9.880;2022-07-17T02:11:15;12.38;;;2.80;;
39958;SDS011;25639;53.634;9.880;2022-07-17T02:13:40;11.35;;;3.00;;
39958;SDS011;25639;53.634;9.880;2022-07-17T02:16:06;12.98;;;3.05;;
39958;SDS011;25639;53.634;9.880;2022-07-17T02:18:31;7.15;;;2.08;;
39958;SDS011;25639;53.634;9.880;2022-07-17T02:20:56;11.18;;;2.28;;
39958;SDS011;25639;53.634;9.880;2022-07-17T02:23:22;8.93;;;2.50;;
39958;SDS011;25639;53.634;9.880;2022-07-17T02:25:47;8.05;;;2.78;;
39958;SDS011;25639;53.634;9.880;2022-07-17T02:28:13;14.30;;;3.20;;
39958;SDS011;25639;53.634;9.880;2022-07-17T02:30:38;10.38;;;2.38;;
39958;SDS011;25639;53.634;9.880;2022-07-17T02:33:03;7.72;;;2.38;;
39958;SDS011;25639;53.634;9.880;2022-07-17T02:35:28;14.88;;;3.00;;
39958;SDS011;25639;53.634;9.880;2022-07-17T02:37:54;10.85;;;2.40;;
39958;SDS011;25639;53.634;9.880;2022-07-17T02:40:19;19.35;;;3.10;;
39958;SDS011;25639;53.634;9.880;2022-07-17T02:42:44;12.43;;;2.38;;
39958;SDS011;25639;53.634;9.880;2022-07-17T02:45:10;13.10;;;2.22;;
39958;SDS011;25639;53.634;9.880;2022-07-17T02:47:35;11.45;;;2.58;;
39958;SDS011;25639;53.634;9.880;2022-07-17T02:50:03;11.38;;;2.38;;
39958;SDS011;25639;53.634;9.880;2022-07-17T02:52:30;10.88;;;2.40;;
39958;SDS011;25639;53.634;9.880;2022-07-17T02:54:55;12.93;;;2.75;;
39958;SDS011;25639;53.634;9.880;2022-07-17T02:57:21;8.52;;;2.15;;
39958;SDS011;25639;53.634;9.880;2022-07-17T02:59:46;11.70;;;2.40;;
39958;SDS011;25639;53.634;9.880;2022-07-17T03:02:12;6.72;;;2.10;;
39958;SDS011;25639;53.634;9.880;2022-07-17T03:04:37;11.73;;;2.28;;
39958;SDS011;25639;53.634;9.880;2022-07-17T03:07:03;8.32;;;2.20;;
39958;SDS011;25639;53.634;9.880;2022-07-17T03:09:28;8.27;;;2.20;;
39958;SDS011;25639;53.634;9.880;2022-07-17T03:11:54;10.43;;;2.90;;
39958;SDS011;25639;53.634;9.880;2022-07-17T03:14:19;10.57;;;2.08;;
39958;SDS011;25639;53.634;9.880;2022-07-17T03:16:44;11.27;;;2.33;;
39958;SDS011;25639;53.634;9.880;2022-07-17T03:19:10;12.18;;;2.03;;
39958;SDS011;25639;53.634;9.880;2022-07-17T03:21:35;25.33;;;3.13;;
39958;SDS011;25639;53.634;9.880;2022-07-17T03:24:00;7.60;;;1.95;;
39958;SDS011;25639;53.634;9.880;2022-07-17T03:26:25;10.48;;;2.30;;
39958;SDS011;25639;53.634;9.880;2022-07-17T03:28:51;12.85;;;2.47;;
39958;SDS011;25639;53.634;9.880;2022-07-17T03:31:16;10.27;;;2.65;;
39958;SDS011;25639;53.634;9.880;2022-07-17T03:33:41;9.25;;;1.98;;
39958;SDS011;25639;53.634;9.880;2022-07-17T03:36:07;9.95;;;2.47;;
39958;SDS011;25639;53.634;9.880;2022-07-17T03:38:32;8.98;;;2.20;;
39958;SDS011;25639;53.634;9.880;2022-07-17T03:40:58;7.80;;;2.58;;
39958;SDS011;25639;53.634;9.880;2022-07-17T03:43:23;7.32;;;2.30;;
39958;SDS011;25639;53.634;9.880;2022-07-17T03:45:49;7.80;;;2.08;;
39958;SDS011;25639;53.634;9.880;2022-07-17T03:48:14;5.78;;;2.05;;
39958;SDS011;25639;53.634;9.880;2022-07-17T03:50:40;9.38;;;2.45;;
39958;SDS011;25639;53.634;9.880;2022-07-17T03:53:05;9.40;;;2.30;;
39958;SDS011;25639;53.634;9.880;2022-07-17T03:55:30;7.97;;;2.63;;
39958;SDS011;25639;53.634;9.880;2022-07-17T03:57:56;10.68;;;2.30;;
39958;SDS011;25639;53.634;9.880;2022-07-17T04:00:21;10.57;;;2.30;;
39958;SDS011;25639;53.634;9.880;2022-07-17T04:02:46;9.40;;;2.38;;
39958;SDS011;25639;53.634;9.880;2022-07-17T04:05:11;14.07;;;2.85;;
39958;SDS011;25639;53.634;9.880;2022-07-17T04:07:37;16.83;;;3.00;;
39958;SDS011;25639;53.634;9.880;2022-07-17T04:10:04;13.45;;;2.63;;
39958;SDS011;25639;53.634;9.880;2022-07-17T04:12:30;10.65;;;2.30;;
39958;SDS011;25639;53.634;9.880;2022-07-17T04:14:56;10.10;;;2.20;;
39958;SDS011;25639;53.634;9.880;2022-07-17T04:17:21;7.50;;;1.95;;
39958;SDS011;25639;53.634;9.880;2022-07-17T04:19:47;8.48;;;2.33;;
39958;SDS011;25639;53.634;9.880;2022-07-17T04:22:12;11.90;;;2.63;;
39958;SDS011;25639;53.634;9.880;2022-07-17T04:24:37;8.82;;;2.00;;
39958;SDS011;25639;53.634;9.880;2022-07-17T04:27:03;9.98;;;2.13;;
39958;SDS011;25639;53.634;9.880;2022-07-17T04:29:29;9.13;;;2.20;;
39958;SDS011;25639;53.634;9.880;2022-07-17T04:31:54;8.10;;;2.65;;
39958;SDS011;25639;53.634;9.880;2022-07-17T04:34:19;15.80;;;2.50;;
39958;SDS011;25639;53.634;9.880;2022-07-17T04:36:45;16.17;;;2.33;;
39958;SDS011;25639;53.634;9.880;2022-07-17T04:39:10;10.18;;;2.47;;
39958;SDS011;25639;53.634;9.880;2022-07-17T04:41:35;15.13;;;2.60;;
39958;SDS011;25639;53.634;9.880;2022-07-17T04:44:01;13.88;;;2.97;;
39958;SDS011;25639;53.634;9.880;2022-07-17T04:46:26;16.02;;;2.58;;
39958;SDS011;25639;53.634;9.880;2022-07-17T04:48:51;9.13;;;2.03;;
39958;SDS011;25639;53.634;9.880;2022-07-17T04:51:16;6.00;;;2.08;;
39958;SDS011;25639;53.634;9.880;2022-07-17T04:53:42;7.80;;;2.20;;
39958;SDS011;25639;53.634;9.880;2022-07-17T04:56:07;7.28;;;2.20;;
39958;SDS011;25639;53.634;9.880;2022-07-17T04:58:32;7.22;;;2.03;;
39958;SDS011;25639;53.634;9.880;2022-07-17T05:00:58;10.93;;;2.33;;
39958;SDS011;25639;53.634;9.880;2022-07-17T05:03:23;11.48;;;2.08;;
39958;SDS011;25639;53.634;9.880;2022-07-17T05:05:48;6.20;;;2.30;;
39958;SDS011;25639;53.634;9.880;2022-07-17T05:08:13;6.63;;;1.90;;
39958;SDS011;25639;53.634;9.880;2022-07-17T05:10:39;8.00;;;2.38;;
39958;SDS011;25639;53.634;9.880;2022-07-17T05:13:04;9.68;;;1.70;;
39958;SDS011;25639;53.634;9.880;2022-07-17T05:15:29;7.70;;;1.70;;
39958;SDS011;25639;53.634;9.880;2022-07-17T05:17:55;7.38;;;2.22;;
39958;SDS011;25639;53.634;9.880;2022-07-17T05:20:20;11.07;;;2.13;;
39958;SDS011;25639;53.634;9.880;2022-07-17T05:22:45;11.18;;;1.98;;
39958;SDS011;25639;53.634;9.880;2022-07-17T05:25:11;9.48;;;1.90;;
39958;SDS011;25639;53.634;9.880;2022-07-17T05:27:36;11.13;;;2.10;;
39958;SDS011;25639;53.634;9.880;2022-07-17T05:30:02;8.82;;;2.15;;
39958;SDS011;25639;53.634;9.880;2022-07-17T05:32:28;9.93;;;1.92;;
39958;SDS011;25639;53.634;9.880;2022-07-17T05:34:53;9.50;;;1.77;;
39958;SDS011;25639;53.634;9.880;2022-07-17T05:37:18;7.70;;;2.08;;
39958;SDS011;25639;53.634;9.880;2022-07-17T05:39:43;9.68;;;1.67;;
39958;SDS011;25639;53.634;9.880;2022-07-17T05:42:09;6.78;;;1.80;;
39958;SDS011;25639;53.634;9.880;2022-07-17T05:44:34;7.38;;;1.55;;
39958;SDS011;25639;53.634;9.880;2022-07-17T05:46:59;9.02;;;1.67;;
39958;SDS011;25639;53.634;9.880;2022-07-17T05:49:24;5.82;;;1.55;;
39958;SDS011;25639;53.634;9.880;2022-07-17T05:51:50;8.00;;;1.85;;
39958;SDS011;25639;53.634;9.880;2022-07-17T05:54:15;9.80;;;2.00;;
39958;SDS011;25639;53.634;9.880;2022-07-17T05:56:40;11.57;;;1.95;;
39958;SDS011;25639;53.634;9.880;2022-07-17T05:59:06;5.93;;;1.50;;
39958;SDS011;25639;53.634;9.880;2022-07-17T06:01:31;7.47;;;1.75;;
39958;SDS011;25639;53.634;9.880;2022-07-17T06:03:56;6.93;;;1.90;;
39958;SDS011;25639;53.634;9.880;2022-07-17T06:06:22;10.23;;;2.03;;
39958;SDS011;25639;53.634;9.880;2022-07-17T06:08:47;5.93;;;1.88;;
39958;SDS011;25639;53.634;9.880;2022-07-17T06:11:12;6.90;;;1.65;;
39958;SDS011;25639;53.634;9.880;2022-07-17T06:13:37;5.63;;;1.40;;
39958;SDS011;25639;53.634;9.880;2022-07-17T06:16:03;8.27;;;1.70;;
39958;SDS011;25639;53.634;9.880;2022-07-17T06:18:28;5.20;;;1.52;;
39958;SDS011;25639;53.634;9.880;2022-07-17T06:20:54;6.20;;;1.40;;
39958;SDS011;25639;53.634;9.880;2022-07-17T06:23:19;7.50;;;1.70;;
39958;SDS011;25639;53.634;9.880;2022-07-17T06:25:44;5.13;;;1.50;;
39958;SDS011;25639;53.634;9.880;2022-07-17T06:28:10;9.85;;;1.42;;
39958;SDS011;25639;53.634;9.880;2022-07-17T06:30:35;7.38;;;1.63;;
39958;SDS011;25639;53.634;9.880;2022-07-17T06:33:00;7.18;;;1.98;;
39958;SDS011;25639;53.634;9.880;2022-07-17T06:35:26;9.40;;;1.75;;
39958;SDS011;25639;53.634;9.880;2022-07-17T06:37:51;6.90;;;1.67;;
39958;SDS011;25639;53.634;9.880;2022-07-17T06:40:16;6.38;;;1.38;;
39958;SDS011;25639;53.634;9.880;2022-07-17T06:42:42;4.72;;;1.30;;
39958;SDS011;25639;53.634;9.880;2022-07-17T06:45:07;2.80;;;1.33;;
39958;SDS011;25639;53.634;9.880;2022-07-17T06:47:33;8.70;;;1.45;;
39958;SDS011;25639;53.634;9.880;2022-07-17T06:49:58;10.32;;;1.92;;
39958;SDS011;25639;53.634;9.880;2022-07-17T06:52:24;7.30;;;1.63;;
39958;SDS011;25639;53.634;9.880;2022-07-17T06:54:49;8.45;;;1.77;;
39958;SDS011;25639;53.634;9.880;2022-07-17T06:57:14;10.57;;;1.95;;
39958;SDS011;25639;53.634;9.880;2022-07-17T06:59:40;7.50;;;1.40;;
39958;SDS011;25639;53.634;9.880;2022-07-17T07:02:05;7.95;;;2.00;;
39958;SDS011;25639;53.634;9.880;2022-07-17T07:04:31;13.15;;;1.80;;
39958;SDS011;25639;53.634;9.880;2022-07-17T07:06:56;8.63;;;1.60;;
39958;SDS011;25639;53.634;9.880;2022-07-17T07:09:22;4.63;;;1.42;;
39958;SDS011;25639;53.634;9.880;2022-07-17T07:11:47;6.13;;;1.70;;
39958;SDS011;25639;53.634;9.880;2022-07-17T07:14:12;8.25;;;2.10;;
39958;SDS011;25639;53.634;9.880;2022-07-17T07:16:38;9.68;;;1.77;;
39958;SDS011;25639;53.634;9.880;2022-07-17T07:19:04;7.85;;;1.25;;
39958;SDS011;25639;53.634;9.880;2022-07-17T07:21:29;7.55;;;1.50;;
39958;SDS011;25639;53.634;9.880;2022-07-17T07:23:55;8.40;;;1.50;;
39958;SDS011;25639;53.634;9.880;2022-07-17T07:26:21;9.85;;;1.73;;
39958;SDS011;25639;53.634;9.880;2022-07-17T07:28:47;8.48;;;1.90;;
39958;SDS011;25639;53.634;9.880;2022-07-17T07:31:12;5.30;;;1.25;;
39958;SDS011;25639;53.634;9.880;2022-07-17T07:33:38;3.35;;;1.23;;
39958;SDS011;25639;53.634;9.880;2022-07-17T07:36:03;5.18;;;1.35;;
39958;SDS011;25639;53.634;9.880;2022-07-17T07:38:29;8.23;;;1.92;;
39958;SDS011;25639;53.634;9.880;2022-07-17T07:40:54;8.80;;;1.40;;
39958;SDS011;25639;53.634;9.880;2022-07-17T07:43:20;7.32;;;1.70;;
39958;SDS011;25639;53.634;9.880;2022-07-17T07:45:45;7.32;;;2.05;;
39958;SDS011;25639;53.634;9.880;2022-07-17T07:48:10;11.43;;;1.58;;
39958;SDS011;25639;53.634;9.880;2022-07-17T07:50:36;10.82;;;2.03;;
39958;SDS011;25639;53.634;9.880;2022-07-17T07:53:01;6.30;;;1.60;;
39958;SDS011;25639;53.634;9.880;2022-07-17T07:55:27;11.75;;;1.90;;
39958;SDS011;25639;53.634;9.880;2022-07-17T07:58:02;7.15;;;1.55;;
39958;SDS011;25639;53.634;9.880;2022-07-17T08:00:28;5.95;;;1.40;;
39958;SDS011;25639;53.634;9.880;2022-07-17T08:02:53;7.63;;;1.58;;
39958;SDS011;25639;53.634;9.880;2022-07-17T08:05:18;7.97;;;1.75;;
39958;SDS011;25639;53.634;9.880;2022-07-17T08:07:43;6.80;;;1.50;;
39958;SDS011;25639;53.634;9.880;2022-07-17T08:10:09;14.02;;;2.50;;
39958;SDS011;25639;53.634;9.880;2022-07-17T08:12:34;4.65;;;1.42;;
39958;SDS011;25639;53.634;9.880;2022-07-17T08:14:59;10.80;;;1.55;;
39958;SDS011;25639;53.634;9.880;2022-07-17T08:17:25;5.32;;;1.58;;
39958;SDS011;25639;53.634;9.880;2022-07-17T08:19:50;5.32;;;1.55;;
39958;SDS011;25639;53.634;9.880;2022-07-17T08:22:15;5.57;;;1.45;;
39958;SDS011;25639;53.634;9.880;2022-07-17T08:24:40;5.97;;;1.67;;
39958;SDS011;25639;53.634;9.880;2022-07-17T08:27:06;8.20;;;1.60;;
39958;SDS011;25639;53.634;9.880;2022-07-17T08:29:31;8.10;;;1.40;;
39958;SDS011;25639;53.634;9.880;2022-07-17T08:31:56;8.88;;;1.65;;
39958;SDS011;25639;53.634;9.880;2022-07-17T08:34:22;6.00;;;1.25;;
39958;SDS011;25639;53.634;9.880;2022-07-17T08:36:47;7.00;;;1.63;;
39958;SDS011;25639;53.634;9.880;2022-07-17T08:39:13;6.93;;;2.05;;
39958;SDS011;25639;53.634;9.880;2022-07-17T08:41:38;9.13;;;1.60;;
39958;SDS011;25639;53.634;9.880;2022-07-17T08:44:07;6.25;;;1.50;;
39958;SDS011;25639;53.634;9.880;2022-07-17T08:46:35;7.57;;;1.30;;
39958;SDS011;25639;53.634;9.880;2022-07-17T08:49:02;4.68;;;1.55;;
39958;SDS011;25639;53.634;9.880;2022-07-17T08:51:30;6.47;;;1.30;;
39958;SDS011;25639;53.634;9.880;2022-07-17T08:53:56;6.68;;;1.50;;
39958;SDS011;25639;53.634;9.880;2022-07-17T08:56:22;8.52;;;1.27;;
39958;SDS011;25639;53.634;9.880;2022-07-17T08:58:48;6.65;;;1.40;;
39958;SDS011;25639;53.634;9.880;2022-07-17T09:01:14;8.60;;;1.77;;
39958;SDS011;25639;53.634;9.880;2022-07-17T09:03:40;9.50;;;1.65;;
39958;SDS011;25639;53.634;9.880;2022-07-17T09:06:22;7.45;;;1.42;;
39958;SDS011;25639;53.634;9.880;2022-07-17T09:08:58;7.47;;;1.83;;
39958;SDS011;25639;53.634;9.880;2022-07-17T09:11:44;6.25;;;1.40;;
39958;SDS011;25639;53.634;9.880;2022-07-17T09:14:12;4.45;;;1.20;;
39958;SDS011;25639;53.634;9.880;2022-07-17T09:16:54;6.03;;;1.52;;
39958;SDS011;25639;53.634;9.880;2022-07-17T09:19:32;5.25;;;1.15;;
39958;SDS011;25639;53.634;9.880;2022-07-17T09:24:50;5.03;;;1.20;;
39958;SDS011;25639;53.634;9.880;2022-07-17T09:27:27;2.28;;;0.93;;
39958;SDS011;25639;53.634;9.880;2022-07-17T09:29:54;6.75;;;1.13;;
39958;SDS011;25639;53.634;9.880;2022-07-17T09:32:21;6.35;;;1.30;;
39958;SDS011;25639;53.634;9.880;2022-07-17T09:34:50;4.35;;;1.23;;
39958;SDS011;25639;53.634;9.880;2022-07-17T09:37:16;5.70;;;1.30;;
39958;SDS011;25639;53.634;9.880;2022-07-17T09:39:42;5.05;;;1.35;;
39958;SDS011;25639;53.634;9.880;2022-07-17T09:42:07;3.75;;;1.05;;
39958;SDS011;25639;53.634;9.880;2022-07-17T09:44:34;5.65;;;1.35;;
39958;SDS011;25639;53.634;9.880;2022-07-17T09:47:00;5.57;;;1.10;;
39958;SDS011;25639;53.634;9.880;2022-07-17T09:49:27;3.88;;;1.20;;
39958;SDS011;25639;53.634;9.880;2022-07-17T09:51:52;5.15;;;1.55;;
39958;SDS011;25639;53.634;9.880;2022-07-17T09:54:20;6.35;;;1.33;;
39958;SDS011;25639;53.634;9.880;2022-07-17T09:56:46;3.88;;;1.23;;
39958;SDS011;25639;53.634;9.880;2022-07-17T09:59:15;5.47;;;1.00;;
39958;SDS011;25639;53.634;9.880;2022-07-17T10:01:42;4.47;;;1.20;;
39958;SDS011;25639;53.634;9.880;2022-07-17T10:04:09;4.75;;;1.10;;
39958;SDS011;25639;53.634;9.880;2022-07-17T10:06:35;3.05;;;1.00;;
39958;SDS011;25639;53.634;9.880;2022-07-17T10:09:01;4.60;;;1.00;;
39958;SDS011;25639;53.634;9.880;2022-07-17T10:11:28;4.53;;;1.05;;
39958;SDS011;25639;53.634;9.880;2022-07-17T10:14:04;3.45;;;0.98;;
39958;SDS011;25639;53.634;9.880;2022-07-17T10:16:33;2.47;;;0.87;;
39958;SDS011;25639;53.634;9.880;2022-07-17T10:18:59;6.10;;;0.98;;
39958;SDS011;25639;53.634;9.880;2022-07-17T10:21:26;5.55;;;1.15;;
39958;SDS011;25639;53.634;9.880;2022-07-17T10:26:31;5.83;;;1.20;;
39958;SDS011;25639;53.634;9.880;2022-07-17T10:29:02;4.15;;;1.08;;
39958;SDS011;25639;53.634;9.880;2022-07-17T10:31:28;6.75;;;1.02;;
39958;SDS011;25639;53.634;9.880;2022-07-17T10:33:58;4.22;;;1.30;;
39958;SDS011;25639;53.634;9.880;2022-07-17T10:36:37;6.88;;;1.10;;
39958;SDS011;25639;53.634;9.880;2022-07-17T10:39:13;5.18;;;1.23;;
39958;SDS011;25639;53.634;9.880;2022-07-17T10:41:39;5.70;;;1.30;;
39958;SDS011;25639;53.634;9.880;2022-07-17T10:44:04;3.90;;;1.00;;
39958;SDS011;25639;53.634;9.880;2022-07-17T10:46:30;8.90;;;1.38;;
39958;SDS011;25639;53.634;9.880;2022-07-17T10:48:55;3.67;;;0.90;;
39958;SDS011;25639;53.634;9.880;2022-07-17T10:51:24;4.10;;;1.02;;
39958;SDS011;25639;53.634;9.880;2022-07-17T10:53:52;5.05;;;1.35;;
39958;SDS011;25639;53.634;9.880;2022-07-17T10:56:21;7.25;;;0.90;;
39958;SDS011;25639;53.634;9.880;2022-07-17T10:58:47;3.28;;;1.05;;
39958;SDS011;25639;53.634;9.880;2022-07-17T11:01:16;2.35;;;1.08;;
39958;SDS011;25639;53.634;9.880;2022-07-17T11:03:46;4.65;;;0.80;;
39958;SDS011;25639;53.634;9.880;2022-07-17T11:06:16;3.13;;;1.23;;
39958;SDS011;25639;53.634;9.880;2022-07-17T11:12:09;5.55;;;1.48;;
39958;SDS011;25639;53.634;9.880;2022-07-17T11:14:25;5.60;;;1.35;;
39958;SDS011;25639;53.634;9.880;2022-07-17T11:16:52;5.82;;;1.20;;
39958;SDS011;25639;53.634;9.880;2022-07-17T11:19:22;4.47;;;1.10;;
39958;SDS011;25639;53.634;9.880;2022-07-17T11:21:50;1.70;;;0.85;;
39958;SDS011;25639;53.634;9.880;2022-07-17T11:24:15;4.60;;;1.13;;
39958;SDS011;25639;53.634;9.880;2022-07-17T11:26:42;5.75;;;1.20;;
39958;SDS011;25639;53.634;9.880;2022-07-17T11:29:09;5.78;;;1.30;;
39958;SDS011;25639;53.634;9.880;2022-07-17T11:31:34;5.10;;;1.27;;
39958;SDS011;25639;53.634;9.880;2022-07-17T11:34:04;2.53;;;1.00;;
39958;SDS011;25639;53.634;9.880;2022-07-17T11:36:37;6.68;;;1.20;;
39958;SDS011;25639;53.634;9.880;2022-07-17T11:39:05;5.10;;;1.20;;
39958;SDS011;25639;53.634;9.880;2022-07-17T11:41:41;3.47;;;1.20;;
39958;SDS011;25639;53.634;9.880;2022-07-17T11:44:10;2.70;;;0.95;;
39958;SDS011;25639;53.634;9.880;2022-07-17T11:46:38;3.55;;;1.30;;
39958;SDS011;25639;53.634;9.880;2022-07-17T11:49:05;4.72;;;0.88;;
39958;SDS011;25639;53.634;9.880;2022-07-17T11:51:38;4.20;;;1.13;;
39958;SDS011;25639;53.634;9.880;2022-07-17T11:54:06;2.40;;;1.23;;
39958;SDS011;25639;53.634;9.880;2022-07-17T11:56:36;5.25;;;1.10;;
39958;SDS011;25639;53.634;9.880;2022-07-17T11:59:02;3.33;;;1.10;;
39958;SDS011;25639;53.634;9.880;2022-07-17T12:01:28;3.63;;;0.90;;
39958;SDS011;25639;53.634;9.880;2022-07-17T12:04:02;2.13;;;1.00;;
39958;SDS011;25639;53.634;9.880;2022-07-17T12:06:27;4.95;;;1.10;;
39958;SDS011;25639;53.634;9.880;2022-07-17T12:08:53;4.68;;;1.55;;
39958;SDS011;25639;53.634;9.880;2022-07-17T12:11:19;3.38;;;1.05;;
39958;SDS011;25639;53.634;9.880;2022-07-17T12:13:46;6.38;;;1.05;;
39958;SDS011;25639;53.634;9.880;2022-07-17T12:16:23;5.32;;;1.10;;
39958;SDS011;25639;53.634;9.880;2022-07-17T12:19:06;5.20;;;1.30;;
39958;SDS011;25639;53.634;9.880;2022-07-17T12:22:13;4.13;;;1.02;;
39958;SDS011;25639;53.634;9.880;2022-07-17T12:24:32;3.13;;;0.90;;
39958;SDS011;25639;53.634;9.880;2022-07-17T12:27:08;2.65;;;0.90;;
39958;SDS011;25639;53.634;9.880;2022-07-17T12:29:36;4.88;;;1.40;;
39958;SDS011;25639;53.634;9.880;2022-07-17T12:32:09;6.93;;;1.25;;
39958;SDS011;25639;53.634;9.880;2022-07-17T12:34:37;2.88;;;1.05;;
39958;SDS011;25639;53.634;9.880;2022-07-17T12:37:10;3.67;;;1.15;;
39958;SDS011;25639;53.634;9.880;2022-07-17T12:39:39;4.85;;;1.30;;
39958;SDS011;25639;53.634;9.880;2022-07-17T12:42:04;4.70;;;1.45;;
39958;SDS011;25639;53.634;9.880;2022-07-17T12:44:30;5.18;;;1.35;;
39958;SDS011;25639;53.634;9.880;2022-07-17T12:46:55;2.33;;;0.77;;
39958;SDS011;25639;53.634;9.880;2022-07-17T12:49:20;2.38;;;0.60;;
39958;SDS011;25639;53.634;9.880;2022-07-17T12:51:46;4.65;;;0.90;;
39958;SDS011;25639;53.634;9.880;2022-07-17T12:54:11;5.82;;;1.10;;
39958;SDS011;25639;53.634;9.880;2022-07-17T12:56:37;3.30;;;1.00;;
39958;SDS011;25639;53.634;9.880;2022-07-17T12:59:02;2.30;;;0.90;;
39958;SDS011;25639;53.634;9.880;2022-07-17T13:01:28;2.10;;;0.90;;
39958;SDS011;25639;53.634;9.880;2022-07-17T13:03:53;7.63;;;1.15;;
39958;SDS011;25639;53.634;9.880;2022-07-17T13:06:18;5.00;;;1.00;;
39958;SDS011;25639;53.634;9.880;2022-07-17T13:08:44;4.40;;;1.10;;
39958;SDS011;25639;53.634;9.880;2022-07-17T13:11:09;2.58;;;0.98;;
39958;SDS011;25639;53.634;9.880;2022-07-17T13:13:34;2.22;;;0.70;;
39958;SDS011;25639;53.634;9.880;2022-07-17T13:16:00;1.92;;;0.73;;
39958;SDS011;25639;53.634;9.880;2022-07-17T13:18:25;3.55;;;0.95;;
39958;SDS011;25639;53.634;9.880;2022-07-17T13:20:50;4.82;;;1.05;;
39958;SDS011;25639;53.634;9.880;2022-07-17T13:23:16;2.28;;;0.70;;
39958;SDS011;25639;53.634;9.880;2022-07-17T13:25:42;4.60;;;1.15;;
39958;SDS011;25639;53.634;9.880;2022-07-17T13:28:10;1.95;;;0.70;;
39958;SDS011;25639;53.634;9.880;2022-07-17T13:30:36;3.17;;;0.93;;
39958;SDS011;25639;53.634;9.880;2022-07-17T13:33:02;3.25;;;1.00;;
39958;SDS011;25639;53.634;9.880;2022-07-17T13:35:28;2.85;;;0.98;;
39958;SDS011;25639;53.634;9.880;2022-07-17T13:37:53;7.05;;;1.10;;
39958;SDS011;25639;53.634;9.880;2022-07-17T13:40:18;3.50;;;1.02;;
39958;SDS011;25639;53.634;9.880;2022-07-17T13:42:44;6.40;;;1.00;;
39958;SDS011;25639;53.634;9.880;2022-07-17T13:45:10;4.35;;;0.95;;
39958;SDS011;25639;53.634;9.880;2022-07-17T13:47:35;2.85;;;1.25;;
39958;SDS011;25639;53.634;9.880;2022-07-17T13:50:01;5.85;;;1.10;;
39958;SDS011;25639;53.634;9.880;2022-07-17T13:52:26;3.47;;;1.15;;
39958;SDS011;25639;53.634;9.880;2022-07-17T13:54:52;3.70;;;1.27;;
39958;SDS011;25639;53.634;9.880;2022-07-17T13:57:17;2.70;;;0.90;;
39958;SDS011;25639;53.634;9.880;2022-07-17T13:59:42;4.03;;;1.02;;
39958;SDS011;25639;53.634;9.880;2022-07-17T14:02:08;5.30;;;1.42;;
39958;SDS011;25639;53.634;9.880;2022-07-17T14:04:33;3.35;;;1.20;;
39958;SDS011;25639;53.634;9.880;2022-07-17T14:06:58;7.45;;;1.20;;
39958;SDS011;25639;53.634;9.880;2022-07-17T14:09:24;2.88;;;0.93;;
39958;SDS011;25639;53.634;9.880;2022-07-17T14:11:50;4.03;;;1.20;;
39958;SDS011;25639;53.634;9.880;2022-07-17T14:14:15;3.80;;;1.00;;
39958;SDS011;25639;53.634;9.880;2022-07-17T14:16:40;2.20;;;1.15;;
39958;SDS011;25639;53.634;9.880;2022-07-17T14:19:05;8.45;;;1.42;;
39958;SDS011;25639;53.634;9.880;2022-07-17T14:21:32;2.10;;;1.05;;
39958;SDS011;25639;53.634;9.880;2022-07-17T14:23:59;1.73;;;1.00;;
39958;SDS011;25639;53.634;9.880;2022-07-17T14:26:25;3.85;;;1.20;;
39958;SDS011;25639;53.634;9.880;2022-07-17T14:28:50;2.63;;;1.10;;
39958;SDS011;25639;53.634;9.880;2022-07-17T14:31:16;3.70;;;1.20;;
39958;SDS011;25639;53.634;9.880;2022-07-17T14:33:41;3.17;;;1.10;;
39958;SDS011;25639;53.634;9.880;2022-07-17T14:36:07;4.57;;;1.00;;
39958;SDS011;25639;53.634;9.880;2022-07-17T14:38:33;3.58;;;1.23;;
39958;SDS011;25639;53.634;9.880;2022-07-17T14:40:59;3.15;;;1.75;;
39958;SDS011;25639;53.634;9.880;2022-07-17T14:43:24;4.13;;;1.13;;
39958;SDS011;25639;53.634;9.880;2022-07-17T14:45:49;2.03;;;1.13;;
39958;SDS011;25639;53.634;9.880;2022-07-17T14:48:15;3.22;;;1.30;;
39958;SDS011;25639;53.634;9.880;2022-07-17T14:50:40;3.20;;;1.10;;
39958;SDS011;25639;53.634;9.880;2022-07-17T14:53:05;3.85;;;1.20;;